createdAt,value
2023-04-17T00:01:27.900Z,94217.28
2023-04-17T00:03:54.844Z,94228.22
2023-04-17T00:06:21.728Z,94229.63
2023-04-17T00:08:48.455Z,94229.81
2023-04-17T00:11:17.333Z,94225.22
2023-04-17T00:13:45.579Z,94222.22
2023-04-17T00:16:13.849Z,94225.41
2023-04-17T00:18:40.842Z,94224.34
2023-04-17T00:21:07.555Z,94214.25
2023-04-17T00:23:34.291Z,94212.47
2023-04-17T00:26:01.305Z,94217.25
2023-04-17T00:28:27.961Z,94219.22
2023-04-17T00:30:54.700Z,94223.13
2023-04-17T00:33:21.412Z,94219.94
2023-04-17T00:35:48.166Z,94222.25
2023-04-17T00:38:14.937Z,94221.41
2023-04-17T00:40:42.224Z,94230.25
2023-04-17T00:43:08.993Z,94225.78
2023-04-17T00:45:35.880Z,94221.25
2023-04-17T00:48:04.234Z,94206.59
2023-04-17T00:50:31.271Z,94206.19
2023-04-17T00:52:58.716Z,94208.97
2023-04-17T00:55:26.716Z,94209.78
2023-04-17T00:57:53.493Z,94209.97
2023-04-17T01:00:20.314Z,94207.38
2023-04-17T01:02:47.481Z,94214.31
2023-04-17T01:05:14.764Z,94205.97
2023-04-17T01:07:42.256Z,94201.63
2023-04-17T01:10:09.678Z,94202.81
2023-04-17T01:12:36.738Z,94205.97
2023-04-17T01:15:03.976Z,94197.81
2023-04-17T01:17:30.813Z,94192.84
2023-04-17T01:19:57.757Z,94189.03
2023-04-17T01:22:25.168Z,94192.22
2023-04-17T01:24:51.917Z,94203.25
2023-04-17T01:27:18.678Z,94201.25
2023-04-17T01:29:45.581Z,94199.84
2023-04-17T01:32:12.334Z,94200.47
2023-04-17T01:34:39.053Z,94198.72
2023-04-17T01:37:05.793Z,94178.13
2023-04-17T01:39:32.594Z,94198.59
2023-04-17T01:41:59.553Z,94200.75
2023-04-17T01:44:26.441Z,94206.06
2023-04-17T01:46:53.163Z,94198.97
2023-04-17T01:49:20.139Z,94192.47
2023-04-17T01:51:46.812Z,94200.81
2023-04-17T01:54:15.598Z,94196.09
2023-04-17T01:56:42.541Z,94194.16
2023-04-17T01:59:09.992Z,94193.72
2023-04-17T02:01:37.077Z,94198.50
2023-04-17T02:04:04.314Z,94187.94
2023-04-17T02:06:32.089Z,94198.50
2023-04-17T02:08:59.659Z,94192.56
2023-04-17T02:11:26.494Z,94196.72
2023-04-17T02:13:53.733Z,94181.06
2023-04-17T02:16:24.188Z,94191.34
2023-04-17T02:18:51.807Z,94191.31
2023-04-17T02:21:18.613Z,94187.22
2023-04-17T02:23:45.434Z,94182.28
2023-04-17T02:26:12.480Z,94181.91
2023-04-17T02:28:39.616Z,94184.38
2023-04-17T02:31:08.714Z,94185.03
2023-04-17T02:33:36.922Z,94191.19
2023-04-17T02:36:07.032Z,94187.75
2023-04-17T02:38:33.873Z,94191.31
2023-04-17T02:41:00.754Z,94186.72
2023-04-17T02:43:27.486Z,94189.47
2023-04-17T02:45:54.283Z,94191.59
2023-04-17T02:48:21.083Z,94196.72
2023-04-17T02:50:48.442Z,94200.25
2023-04-17T02:53:15.313Z,94195.34
2023-04-17T02:55:42.104Z,94190.41
2023-04-17T02:58:08.856Z,94194.25
2023-04-17T03:00:35.634Z,94189.91
2023-04-17T03:03:03.488Z,94195.31
2023-04-17T03:05:30.719Z,94189.34
2023-04-17T03:08:00.803Z,94192.56
2023-04-17T03:10:27.512Z,94189.41
2023-04-17T03:12:54.609Z,94189.22
2023-04-17T03:15:21.399Z,94180.28
2023-04-17T03:17:48.101Z,94198.91
2023-04-17T03:20:16.188Z,94197.88
2023-04-17T03:22:43.057Z,94192.94
2023-04-17T03:25:10.404Z,94187.41
2023-04-17T03:27:37.204Z,94189.34
2023-04-17T03:30:04.170Z,94189.28
2023-04-17T03:32:30.988Z,94192.91
2023-04-17T03:34:57.690Z,94192.28
2023-04-17T03:37:24.463Z,94191.94
2023-04-17T03:39:51.250Z,94189.91
2023-04-17T03:42:17.946Z,94191.94
2023-04-17T03:44:44.756Z,94196.47
2023-04-17T03:47:11.525Z,94186.78
2023-04-17T03:49:38.289Z,94186.78
2023-04-17T03:52:05.632Z,94184.38
2023-04-17T03:54:35.782Z,94181.56
2023-04-17T03:57:03.454Z,94186.28
2023-04-17T03:59:33.236Z,94190.25
2023-04-17T04:02:00.253Z,94193.09
2023-04-17T04:04:27.508Z,94196.09
2023-04-17T04:06:57.593Z,94192.72
2023-04-17T04:09:25.880Z,94199.28
2023-04-17T04:11:52.569Z,94199.34
2023-04-17T04:14:19.623Z,94198.31
2023-04-17T04:16:46.360Z,94198.84
2023-04-17T04:19:13.288Z,94198.25
2023-04-17T04:21:42.253Z,94205.44
2023-04-17T04:24:10.194Z,94202.59
2023-04-17T04:26:38.101Z,94204.13
2023-04-17T04:29:06.028Z,94203.38
2023-04-17T04:31:33.161Z,94199.66
2023-04-17T04:33:59.951Z,94203.66
2023-04-17T04:36:30.001Z,94204.13
2023-04-17T04:39:00.945Z,94205.72
2023-04-17T04:41:30.172Z,94208.19
2023-04-17T04:43:57.019Z,94213.69
2023-04-17T04:46:23.682Z,94218.34
2023-04-17T04:48:50.410Z,94223.84
2023-04-17T04:51:19.073Z,94215.16
2023-04-17T04:53:46.225Z,94218.69
2023-04-17T04:56:13.024Z,94217.38
2023-04-17T04:58:39.767Z,94219.75
2023-04-17T05:01:07.058Z,94207.94
2023-04-17T05:03:34.263Z,94214.34
2023-04-17T05:06:01.497Z,94215.94
2023-04-17T05:08:28.216Z,94217.53
2023-04-17T05:10:54.958Z,94222.94
2023-04-17T05:13:21.686Z,94224.66
2023-04-17T05:15:48.465Z,94219.38
2023-04-17T05:18:15.466Z,94229.22
2023-04-17T05:20:42.253Z,94227.84
2023-04-17T05:23:09.059Z,94231.78
2023-04-17T05:25:35.960Z,94231.34
2023-04-17T05:28:02.627Z,94237.34
2023-04-17T05:30:29.514Z,94230.69
2023-04-17T05:32:56.460Z,94240.25
2023-04-17T05:35:23.310Z,94242.47
2023-04-17T05:37:50.272Z,94230.75
2023-04-17T05:40:17.147Z,94240.72
2023-04-17T05:42:43.889Z,94247.66
2023-04-17T05:45:14.861Z,94250.56
2023-04-17T05:47:42.303Z,94250.41
2023-04-17T05:50:09.440Z,94244.72
2023-04-17T05:52:38.818Z,94254.66
2023-04-17T05:55:06.922Z,94251.47
2023-04-17T05:57:33.720Z,94255.03
2023-04-17T06:00:00.514Z,94242.13
2023-04-17T06:02:27.372Z,94250.47
2023-04-17T06:04:54.562Z,94251.34
2023-04-17T06:07:21.772Z,94244.03
2023-04-17T06:09:48.695Z,94241.25
2023-04-17T06:12:16.470Z,94250.47
2023-04-17T06:14:43.851Z,94247.13
2023-04-17T06:17:12.417Z,94248.16
2023-04-17T06:19:39.328Z,94245.22
2023-04-17T06:22:06.267Z,94245.66
2023-04-17T06:24:33.177Z,94226.31
2023-04-17T06:26:59.990Z,94238.75
2023-04-17T06:29:26.732Z,94237.19
2023-04-17T06:31:53.471Z,94235.84
2023-04-17T06:34:20.168Z,94235.75
2023-04-17T06:36:46.890Z,94239.19
2023-04-17T06:39:13.806Z,94243.38
2023-04-17T06:41:40.815Z,94238.25
2023-04-17T06:44:07.945Z,94253.00
2023-04-17T06:46:34.713Z,94257.69
2023-04-17T06:49:02.862Z,94261.81
2023-04-17T06:51:29.615Z,94264.75
2023-04-17T06:53:56.303Z,94267.69
2023-04-17T06:56:24.378Z,94269.06
2023-04-17T06:58:52.570Z,94281.22
2023-04-17T07:01:20.034Z,94278.63
2023-04-17T07:03:47.227Z,94277.09
2023-04-17T07:06:14.120Z,94283.03
2023-04-17T07:08:40.975Z,94276.91
2023-04-17T07:11:07.873Z,94278.38
2023-04-17T07:13:34.637Z,94276.72
2023-04-17T07:16:02.022Z,94285.31
2023-04-17T07:18:31.759Z,94291.47
2023-04-17T07:20:58.664Z,94290.72
2023-04-17T07:23:25.486Z,94290.91
2023-04-17T07:25:53.636Z,94288.34
2023-04-17T07:28:20.505Z,94294.72
2023-04-17T07:30:47.372Z,94295.94
2023-04-17T07:33:14.113Z,94286.44
2023-04-17T07:35:41.362Z,94288.06
2023-04-17T07:38:08.096Z,94285.91
2023-04-17T07:40:36.233Z,94281.97
2023-04-17T07:43:02.983Z,94285.38
2023-04-17T07:45:29.861Z,94283.38
2023-04-17T07:47:56.677Z,94296.94
2023-04-17T07:50:23.932Z,94300.31
2023-04-17T07:52:50.913Z,94300.69
2023-04-17T07:55:17.661Z,94299.25
2023-04-17T07:57:47.044Z,94305.06
2023-04-17T08:00:14.823Z,94299.09
2023-04-17T08:02:42.494Z,94287.22
2023-04-17T08:05:10.136Z,94303.88
2023-04-17T08:07:37.264Z,94298.31
2023-04-17T08:10:05.160Z,94303.69
2023-04-17T08:12:32.017Z,94301.31
2023-04-17T08:14:58.797Z,94298.72
2023-04-17T08:17:26.420Z,94296.94
2023-04-17T08:19:59.007Z,94292.56
2023-04-17T08:22:26.630Z,94298.59
2023-04-17T08:24:59.849Z,94298.59
2023-04-17T08:27:26.682Z,94293.59
2023-04-17T08:29:56.696Z,94300.16
2023-04-17T08:32:23.477Z,94299.00
2023-04-17T08:34:50.232Z,94292.03
2023-04-17T08:37:17.020Z,94298.22
2023-04-17T08:39:43.808Z,94295.69
2023-04-17T08:42:14.768Z,94297.28
2023-04-17T08:44:44.628Z,94304.25
2023-04-17T08:47:12.734Z,94300.66
2023-04-17T08:49:43.632Z,94292.50
2023-04-17T08:52:10.973Z,94298.28
2023-04-17T08:54:39.041Z,94306.63
2023-04-17T08:57:06.253Z,94301.47
2023-04-17T08:59:33.100Z,94311.41
2023-04-17T09:02:09.392Z,94309.41
2023-04-17T09:04:44.311Z,94313.38
2023-04-17T09:07:13.035Z,94315.78
2023-04-17T09:09:53.899Z,94318.75
2023-04-17T09:12:21.885Z,94317.75
2023-04-17T09:14:48.865Z,94320.94
2023-04-17T09:17:20.332Z,94303.81
2023-04-17T09:20:04.150Z,94318.97
2023-04-17T09:22:31.163Z,94313.78
2023-04-17T09:24:58.081Z,94316.75
2023-04-17T09:27:26.497Z,94309.00
2023-04-17T09:30:04.208Z,94313.78
2023-04-17T09:32:32.274Z,94302.66
2023-04-17T09:35:01.666Z,94311.00
2023-04-17T09:37:51.332Z,94313.00
2023-04-17T09:40:22.478Z,94320.94
2023-04-17T09:43:03.986Z,94311.59
2023-04-17T09:45:40.229Z,94316.75
2023-04-17T09:48:08.827Z,94319.56
2023-04-17T09:50:37.324Z,94325.31
2023-04-17T09:53:06.515Z,94313.00
2023-04-17T09:55:33.746Z,94317.19
2023-04-17T09:58:05.194Z,94321.16
2023-04-17T10:00:32.081Z,94321.75
2023-04-17T10:03:00.257Z,94328.69
2023-04-17T10:05:29.229Z,94322.13
2023-04-17T10:07:56.657Z,94328.75
2023-04-17T10:10:25.693Z,94320.19
2023-04-17T10:12:56.261Z,94329.91
2023-04-17T10:15:24.581Z,94332.09
2023-04-17T10:17:51.497Z,94322.13
2023-04-17T10:20:18.241Z,94325.34
2023-04-17T10:22:45.283Z,94320.97
2023-04-17T10:25:12.847Z,94323.16
2023-04-17T10:27:42.573Z,94317.59
2023-04-17T10:30:12.867Z,94304.44
2023-04-17T10:32:41.864Z,94310.63
2023-04-17T10:35:17.792Z,94309.00
2023-04-17T10:37:48.099Z,94313.38
2023-04-17T10:40:23.160Z,94317.56
2023-04-17T10:43:11.312Z,94306.25
2023-04-17T10:46:03.638Z,94309.81
2023-04-17T10:48:52.548Z,94304.81
2023-04-17T10:51:29.035Z,94307.41
2023-04-17T10:54:10.682Z,94306.03
2023-04-17T10:56:55.965Z,94306.22
2023-04-17T10:59:26.480Z,94301.06
2023-04-17T11:01:55.892Z,94300.47
2023-04-17T11:04:28.813Z,94305.47
2023-04-17T11:06:55.928Z,94298.09
2023-04-17T11:09:24.733Z,94306.59
2023-04-17T11:11:51.636Z,94306.63
2023-04-17T11:14:20.080Z,94305.44
2023-04-17T11:16:50.929Z,94303.25
2023-04-17T11:19:23.151Z,94296.72
2023-04-17T11:21:52.170Z,94301.47
2023-04-17T11:24:30.090Z,94300.69
2023-04-17T11:26:59.842Z,94304.66
2023-04-17T11:29:27.720Z,94301.66
2023-04-17T11:31:56.684Z,94297.88
2023-04-17T11:34:25.029Z,94306.63
2023-04-17T11:36:56.437Z,94302.66
2023-04-17T11:39:30.971Z,94302.28
2023-04-17T11:41:58.186Z,94305.47
2023-04-17T11:44:25.947Z,94309.84
2023-04-17T11:46:54.087Z,94305.47
2023-04-17T11:49:28.592Z,94304.06
2023-04-17T11:51:58.743Z,94307.09
2023-04-17T11:54:35.010Z,94310.84
2023-04-17T11:57:03.276Z,94309.88
2023-04-17T11:59:40.548Z,94302.91
2023-04-17T12:02:08.403Z,94312.25
2023-04-17T12:04:36.805Z,94311.25
2023-04-17T12:07:05.184Z,94316.22
2023-04-17T12:09:33.962Z,94314.84
2023-04-17T12:12:03.725Z,94317.03
2023-04-17T12:14:30.850Z,94319.97
2023-04-17T12:16:57.701Z,94320.38
2023-04-17T12:19:26.874Z,94317.03
2023-04-17T12:21:54.602Z,94316.00
2023-04-17T12:24:24.308Z,94324.59
2023-04-17T12:26:51.841Z,94328.16
2023-04-17T12:29:21.988Z,94330.56
2023-04-17T12:31:56.626Z,94326.16
2023-04-17T12:34:24.233Z,94322.59
2023-04-17T12:36:51.702Z,94323.00
2023-04-17T12:39:18.638Z,94321.19
2023-04-17T12:41:45.417Z,94320.00
2023-04-17T12:44:12.303Z,94321.19
2023-04-17T12:46:39.415Z,94324.38
2023-04-17T12:49:06.151Z,94321.41
2023-04-17T12:51:37.962Z,94325.75
2023-04-17T12:54:05.214Z,94326.16
2023-04-17T12:56:32.438Z,94317.41
2023-04-17T12:59:01.416Z,94329.16
2023-04-17T13:01:29.966Z,94325.34
2023-04-17T13:03:56.992Z,94330.34
2023-04-17T13:06:24.409Z,94327.78
2023-04-17T13:08:51.237Z,94325.97
2023-04-17T13:11:18.045Z,94323.97
2023-04-17T13:13:45.149Z,94321.97
2023-04-17T13:16:12.025Z,94316.59
2023-04-17T13:18:38.867Z,94309.81
2023-04-17T13:21:05.695Z,94312.03
2023-04-17T13:23:32.422Z,94319.00
2023-04-17T13:25:59.255Z,94324.19
2023-04-17T13:28:25.979Z,94321.38
2023-04-17T13:30:53.283Z,94323.38
2023-04-17T13:33:20.053Z,94319.81
2023-04-17T13:35:46.824Z,94317.00
2023-04-17T13:38:13.521Z,94313.81
2023-04-17T13:40:41.061Z,94322.78
2023-04-17T13:43:07.908Z,94315.63
2023-04-17T13:45:35.121Z,94317.41
2023-04-17T13:48:02.158Z,94313.00
2023-04-17T13:50:29.063Z,94307.06
2023-04-17T13:52:55.818Z,94309.84
2023-04-17T13:55:22.534Z,94309.84
2023-04-17T13:57:49.281Z,94311.03
2023-04-17T14:00:17.315Z,94306.47
2023-04-17T14:02:44.181Z,94305.69
2023-04-17T14:05:11.267Z,94302.06
2023-04-17T14:07:38.334Z,94305.25
2023-04-17T14:10:05.616Z,94303.63
2023-04-17T14:12:32.425Z,94298.38
2023-04-17T14:14:59.152Z,94299.38
2023-04-17T14:17:26.113Z,94302.16
2023-04-17T14:19:53.097Z,94296.53
2023-04-17T14:22:20.195Z,94298.75
2023-04-17T14:24:47.058Z,94295.78
2023-04-17T14:27:13.781Z,94295.31
2023-04-17T14:29:40.597Z,94298.75
2023-04-17T14:32:07.322Z,94298.13
2023-04-17T14:34:34.173Z,94297.97
2023-04-17T14:37:00.927Z,94304.00
2023-04-17T14:39:29.473Z,94300.22
2023-04-17T14:41:59.591Z,94296.41
2023-04-17T14:44:28.073Z,94298.19
2023-04-17T14:46:56.986Z,94291.81
2023-04-17T14:49:23.975Z,94291.00
2023-04-17T14:51:50.714Z,94299.78
2023-04-17T14:54:17.454Z,94292.19
2023-04-17T14:56:44.179Z,94286.75
2023-04-17T14:59:11.520Z,94275.38
2023-04-17T15:01:38.402Z,94281.94
2023-04-17T15:04:05.445Z,94280.97
2023-04-17T15:06:32.443Z,94280.44
2023-04-17T15:08:59.212Z,94283.22
2023-04-17T15:11:26.032Z,94274.81
2023-04-17T15:13:52.799Z,94280.03
2023-04-17T15:16:19.612Z,94275.69
2023-04-17T15:18:46.351Z,94283.16
2023-04-17T15:21:13.305Z,94289.34
2023-04-17T15:23:41.121Z,94289.34
2023-04-17T15:26:08.054Z,94282.59
2023-04-17T15:28:36.153Z,94277.53
2023-04-17T15:31:03.050Z,94288.84
2023-04-17T15:33:29.778Z,94277.94
2023-04-17T15:35:58.234Z,94288.13
2023-04-17T15:38:27.767Z,94279.94
2023-04-17T15:40:54.947Z,94280.75
2023-04-17T15:43:22.105Z,94279.16
2023-04-17T15:45:49.459Z,94270.50
2023-04-17T15:48:16.298Z,94268.91
2023-04-17T15:50:43.728Z,94265.66
2023-04-17T15:53:10.770Z,94272.84
2023-04-17T15:55:38.596Z,94276.88
2023-04-17T15:58:05.816Z,94272.09
2023-04-17T16:00:34.098Z,94272.09
2023-04-17T16:03:01.087Z,94274.91
2023-04-17T16:05:29.748Z,94271.28
2023-04-17T16:07:56.432Z,94263.38
2023-04-17T16:10:23.212Z,94266.97
2023-04-17T16:12:49.843Z,94267.47
2023-04-17T16:15:17.649Z,94273.78
2023-04-17T16:17:45.778Z,94266.47
2023-04-17T16:20:13.094Z,94267.25
2023-04-17T16:22:39.984Z,94243.16
2023-04-17T16:25:07.173Z,94261.88
2023-04-17T16:27:34.233Z,94253.94
2023-04-17T16:30:01.025Z,94252.13
2023-04-17T16:32:27.883Z,94254.75
2023-04-17T16:34:54.960Z,94252.34
2023-04-17T16:37:21.725Z,94246.97
2023-04-17T16:39:48.678Z,94260.91
2023-04-17T16:42:15.603Z,94255.19
2023-04-17T16:44:42.370Z,94251.59
2023-04-17T16:47:14.003Z,94255.59
2023-04-17T16:49:41.889Z,94249.22
2023-04-17T16:52:08.745Z,94243.09
2023-04-17T16:54:35.519Z,94239.72
2023-04-17T16:57:02.253Z,94243.31
2023-04-17T16:59:28.971Z,94246.88
2023-04-17T17:01:55.864Z,94249.09
2023-04-17T17:04:22.610Z,94247.50
2023-04-17T17:06:49.535Z,94239.13
2023-04-17T17:09:16.490Z,94243.16
2023-04-17T17:11:43.196Z,94228.59
2023-04-17T17:14:09.877Z,94248.09
2023-04-17T17:16:36.934Z,94250.28
2023-04-17T17:19:03.933Z,94248.50
2023-04-17T17:21:31.194Z,94247.31
2023-04-17T17:23:57.958Z,94254.69
2023-04-17T17:26:25.080Z,94251.69
2023-04-17T17:28:53.413Z,94246.16
2023-04-17T17:31:20.422Z,94255.47
2023-04-17T17:33:50.245Z,94256.91
2023-04-17T17:36:17.494Z,94247.34
2023-04-17T17:38:44.641Z,94247.75
2023-04-17T17:41:11.692Z,94257.28
2023-04-17T17:43:38.465Z,94255.53
2023-04-17T17:46:05.446Z,94259.09
2023-04-17T17:48:34.336Z,94256.31
2023-04-17T17:51:01.074Z,94259.31
2023-04-17T17:53:27.816Z,94254.31
2023-04-17T17:55:55.653Z,94254.53
2023-04-17T17:58:22.483Z,94260.53
2023-04-17T18:00:50.433Z,94249.97
2023-04-17T18:03:17.937Z,94260.88
2023-04-17T18:05:45.916Z,94252.94
2023-04-17T18:08:13.255Z,94264.69
2023-04-17T18:10:39.965Z,94256.94
2023-04-17T18:13:06.655Z,94269.25
2023-04-17T18:15:33.311Z,94279.00
2023-04-17T18:18:00.515Z,94275.22
2023-04-17T18:20:27.227Z,94287.16
2023-04-17T18:22:54.398Z,94287.16
2023-04-17T18:25:21.235Z,94282.38
2023-04-17T18:27:47.878Z,94290.75
2023-04-17T18:30:15.268Z,94297.09
2023-04-17T18:32:41.966Z,94296.28
2023-04-17T18:35:09.295Z,94301.06
2023-04-17T18:37:36.034Z,94296.66
2023-04-17T18:40:02.901Z,94294.66
2023-04-17T18:42:29.857Z,94297.84
2023-04-17T18:44:56.553Z,94292.09
2023-04-17T18:47:23.207Z,94298.25
2023-04-17T18:49:52.828Z,94299.41
2023-04-17T18:52:19.922Z,94302.97
2023-04-17T18:54:46.674Z,94296.19
2023-04-17T18:57:13.399Z,94281.47
2023-04-17T18:59:41.978Z,94287.06
2023-04-17T19:02:09.779Z,94288.25
2023-04-17T19:04:36.444Z,94286.25
2023-04-17T19:07:03.390Z,94290.03
2023-04-17T19:09:30.822Z,94287.84
2023-04-17T19:11:58.652Z,94288.63
2023-04-17T19:14:25.575Z,94290.56
2023-04-17T19:16:53.445Z,94294.94
2023-04-17T19:19:20.322Z,94296.94
2023-04-17T19:21:46.939Z,94296.13
2023-04-17T19:24:13.706Z,94292.16
2023-04-17T19:26:40.744Z,94286.97
2023-04-17T19:29:07.358Z,94291.56
2023-04-17T19:31:34.709Z,94292.16
2023-04-17T19:34:01.757Z,94286.78
2023-04-17T19:36:28.591Z,94290.97
2023-04-17T19:38:56.471Z,94283.22
2023-04-17T19:41:23.111Z,94281.03
2023-04-17T19:43:52.732Z,94279.03
2023-04-17T19:46:20.638Z,94278.25
2023-04-17T19:48:47.945Z,94268.72
2023-04-17T19:51:15.540Z,94262.16
2023-04-17T19:53:43.450Z,94266.66
2023-04-17T19:56:10.755Z,94272.06
2023-04-17T19:58:38.580Z,94278.97
2023-04-17T20:01:05.513Z,94268.41
2023-04-17T20:03:33.188Z,94280.97
2023-04-17T20:06:00.624Z,94273.81
2023-04-17T20:08:27.395Z,94278.97
2023-04-17T20:10:54.071Z,94270.03
2023-04-17T20:13:21.481Z,94272.06
2023-04-17T20:15:48.233Z,94280.00
2023-04-17T20:18:14.882Z,94279.34
2023-04-17T20:20:41.520Z,94277.19
2023-04-17T20:23:08.158Z,94270.59
2023-04-17T20:25:34.795Z,94271.59
2023-04-17T20:28:02.982Z,94268.22
2023-04-17T20:30:30.402Z,94262.44
2023-04-17T20:32:57.276Z,94258.88
2023-04-17T20:35:24.789Z,94270.19
2023-04-17T20:37:52.177Z,94258.25
2023-04-17T20:40:19.558Z,94266.38
2023-04-17T20:42:46.787Z,94265.78
2023-04-17T20:45:13.670Z,94262.00
2023-04-17T20:47:55.318Z,94257.47
2023-04-17T20:50:23.056Z,94267.00
2023-04-17T20:52:49.837Z,94264.03
2023-04-17T20:55:18.832Z,94259.06
2023-04-17T20:57:45.753Z,94267.00
2023-04-17T21:00:12.781Z,94253.91
2023-04-17T21:02:39.555Z,94255.25
2023-04-17T21:05:07.589Z,94246.91
2023-04-17T21:07:34.249Z,94252.06
2023-04-17T21:10:01.190Z,94256.06
2023-04-17T21:12:28.218Z,94255.22
2023-04-17T21:14:54.897Z,94245.91
2023-04-17T21:17:21.702Z,94241.38
2023-04-17T21:19:49.357Z,94245.75
2023-04-17T21:22:16.327Z,94243.16
2023-04-17T21:24:43.053Z,94234.22
2023-04-17T21:27:10.502Z,94232.03
2023-04-17T21:29:37.574Z,94238.56
2023-04-17T21:32:04.742Z,94229.97
2023-04-17T21:34:31.478Z,94236.53
2023-04-17T21:36:59.699Z,94242.50
2023-04-17T21:39:26.289Z,94239.72
2023-04-17T21:41:52.981Z,94245.69
2023-04-17T21:44:19.592Z,94242.31
2023-04-17T21:46:46.374Z,94239.72
2023-04-17T21:49:13.034Z,94239.13
2023-04-17T21:51:39.840Z,94227.78
2023-04-17T21:54:06.728Z,94244.84
2023-04-17T21:56:33.332Z,94237.09
2023-04-17T21:58:59.980Z,94242.88
2023-04-17T22:01:27.213Z,94241.88
2023-04-17T22:03:54.186Z,94236.72
2023-04-17T22:06:20.811Z,94235.94
2023-04-17T22:08:47.409Z,94243.88
2023-04-17T22:11:13.980Z,94235.31
2023-04-17T22:13:40.600Z,94232.94
2023-04-17T22:16:07.285Z,94235.13
2023-04-17T22:18:33.874Z,94237.53
2023-04-17T22:21:00.802Z,94236.53
2023-04-17T22:23:27.767Z,94230.19
2023-04-17T22:25:54.414Z,94232.41
2023-04-17T22:28:21.004Z,94232.78
2023-04-17T22:30:51.061Z,94242.72
2023-04-17T22:33:18.011Z,94245.88
2023-04-17T22:35:44.660Z,94247.84
2023-04-17T22:38:11.974Z,94248.22
2023-04-17T22:40:38.829Z,94247.66
2023-04-17T22:43:05.824Z,94249.44
2023-04-17T22:45:32.779Z,94251.00
2023-04-17T22:47:59.506Z,94236.91
2023-04-17T22:50:26.229Z,94242.69
2023-04-17T22:52:52.794Z,94245.44
2023-04-17T22:55:19.472Z,94250.59
2023-04-17T22:57:46.038Z,94243.84
2023-04-17T23:00:13.318Z,94252.16
2023-04-17T23:02:40.177Z,94239.50
2023-04-17T23:05:07.604Z,94243.66
2023-04-17T23:07:34.420Z,94239.69
2023-04-17T23:10:01.518Z,94240.66
2023-04-17T23:12:28.210Z,94239.09
2023-04-17T23:14:54.930Z,94235.13
2023-04-17T23:17:21.671Z,94234.75
2023-04-17T23:19:48.509Z,94233.34
2023-04-17T23:22:15.226Z,94232.34
2023-04-17T23:24:42.046Z,94229.38
2023-04-17T23:27:08.795Z,94235.31
2023-04-17T23:29:35.592Z,94237.28
2023-04-17T23:32:04.560Z,94224.34
2023-04-17T23:34:31.248Z,94234.09
2023-04-17T23:36:57.980Z,94228.50
2023-04-17T23:39:25.282Z,94223.34
2023-04-17T23:41:52.211Z,94219.97
2023-04-17T23:44:19.343Z,94224.31
2023-04-17T23:46:46.144Z,94223.53
2023-04-17T23:49:13.007Z,94217.16
2023-04-17T23:51:39.843Z,94212.56
2023-04-17T23:54:07.989Z,94212.59
2023-04-17T23:56:34.882Z,94215.75
2023-04-17T23:59:01.644Z,94216.72
